Time;durP1;ratioP1;P1;durP2;ratioP2;P2;SDS_P1;SDS_P2;PMS_P1;PMS_P2;Temp;Humidity;BMP_temperature;BMP_pressure;BME280_temperature;BME280_humidity;BME280_pressure;Samples;Min_cycle;Max_cycle;Signal;HPM_P1;HPM_P2
2023/04/25 00:00:18;;;;;;;9.85;4.40;;;10.40;59.70;;;;;;5047129;28;20044;-46
2023/04/25 00:02:46;;;;;;;9.02;4.65;;;10.40;59.90;;;;;;5022763;28;20068;-50
2023/04/25 00:05:17;;;;;;;9.45;4.35;;;10.40;60.00;;;;;;5030402;28;20069;-48
2023/04/25 00:07:47;;;;;;;8.13;4.22;;;10.30;60.10;;;;;;5034791;28;20987;-49
2023/04/25 00:10:13;;;;;;;13.45;5.20;;;10.30;60.00;;;;;;5045399;28;20498;-46
2023/04/25 00:12:41;;;;;;;9.15;4.82;;;10.30;60.20;;;;;;5038901;28;20571;-51
2023/04/25 00:15:09;;;;;;;12.60;4.90;;;10.30;60.40;;;;;;5050077;28;20044;-49
2023/04/25 00:17:38;;;;;;;9.75;5.00;;;10.30;60.70;;;;;;5031208;28;20057;-50
2023/04/25 00:20:06;;;;;;;9.85;4.95;;;10.30;60.90;;;;;;5030719;28;20048;-46
2023/04/25 00:22:34;;;;;;;12.80;5.40;;;10.30;61.10;;;;;;5047317;28;20116;-47
2023/04/25 00:25:01;;;;;;;12.23;4.93;;;10.40;61.30;;;;;;5029682;28;20041;-47
2023/04/25 00:27:27;;;;;;;11.88;5.22;;;10.50;61.30;;;;;;5029735;28;20055;-47
2023/04/25 00:29:54;;;;;;;9.82;5.40;;;10.50;61.30;;;;;;5042550;28;20116;-47
2023/04/25 00:32:21;;;;;;;12.75;5.80;;;10.50;61.30;;;;;;5029700;28;20721;-48
2023/04/25 00:34:50;;;;;;;11.45;5.13;;;10.50;61.30;;;;;;5044811;28;20112;-51
2023/04/25 00:37:18;;;;;;;8.07;4.65;;;10.60;61.20;;;;;;5027138;28;20041;-47
2023/04/25 00:39:44;;;;;;;11.32;5.07;;;10.60;61.20;;;;;;5042675;28;20045;-52
2023/04/25 00:42:12;;;;;;;8.88;4.75;;;10.60;61.20;;;;;;5044688;28;20037;-48
2023/04/25 00:44:39;;;;;;;12.68;4.82;;;10.70;61.20;;;;;;5041721;28;20049;-48
2023/04/25 00:47:06;;;;;;;8.10;4.97;;;10.70;61.30;;;;;;5040276;28;20041;-47
2023/04/25 00:49:35;;;;;;;8.85;4.82;;;10.70;61.40;;;;;;5043022;28;20035;-48
2023/04/25 00:52:04;;;;;;;8.55;4.43;;;10.80;61.20;;;;;;5043587;28;20041;-48
2023/04/25 00:54:31;;;;;;;12.70;6.03;;;10.80;61.20;;;;;;5046620;28;20037;-48
2023/04/25 00:56:58;;;;;;;10.85;5.30;;;10.80;61.20;;;;;;5046292;28;20517;-47
2023/04/25 00:59:25;;;;;;;7.25;4.85;;;10.80;61.20;;;;;;5042266;28;20048;-49
2023/04/25 01:01:54;;;;;;;7.53;5.05;;;10.80;61.20;;;;;;5046905;28;20064;-48
2023/04/25 01:04:26;;;;;;;9.18;4.78;;;10.80;61.20;;;;;;5044065;28;20447;-50
2023/04/25 01:06:53;;;;;;;12.18;4.57;;;10.80;61.20;;;;;;5042872;28;20091;-51
2023/04/25 01:09:20;;;;;;;8.45;4.90;;;10.80;61.10;;;;;;5041493;28;20092;-48
2023/04/25 01:11:48;;;;;;;11.88;5.40;;;10.80;61.10;;;;;;5048251;28;20037;-46
2023/04/25 01:14:14;;;;;;;13.07;5.07;;;10.80;61.20;;;;;;5045326;28;20065;-48
2023/04/25 01:16:42;;;;;;;7.55;4.90;;;10.80;61.20;;;;;;5044914;28;20049;-47
2023/04/25 01:19:13;;;;;;;7.95;4.22;;;10.80;61.20;;;;;;5039784;28;20673;-48
2023/04/25 01:21:40;;;;;;;12.07;5.13;;;10.80;61.20;;;;;;5049823;28;20051;-47
2023/04/25 01:24:07;;;;;;;6.72;4.72;;;10.80;61.00;;;;;;5029602;28;20037;-49
2023/04/25 01:26:35;;;;;;;9.00;5.15;;;10.70;61.00;;;;;;5026578;28;20033;-46
2023/04/25 01:29:04;;;;;;;8.05;4.75;;;10.70;61.10;;;;;;5035933;28;20045;-47
2023/04/25 01:31:32;;;;;;;10.05;5.43;;;10.60;61.00;;;;;;5027757;28;20045;-50
2023/04/25 01:34:00;;;;;;;11.35;5.07;;;10.60;61.10;;;;;;5041463;28;20106;-49
2023/04/25 01:36:28;;;;;;;10.05;4.90;;;10.50;61.10;;;;;;5026461;28;20041;-48
2023/04/25 01:38:55;;;;;;;11.98;5.18;;;10.50;61.20;;;;;;5038851;28;20060;-47
2023/04/25 01:41:27;;;;;;;10.00;4.65;;;10.40;61.20;;;;;;5029378;28;20041;-50
2023/04/25 01:43:55;;;;;;;12.73;5.30;;;10.40;61.50;;;;;;5034867;28;20036;-47
2023/04/25 01:46:21;;;;;;;8.95;4.72;;;10.30;61.40;;;;;;5053075;28;20056;-49
2023/04/25 01:48:49;;;;;;;12.02;5.20;;;10.30;61.50;;;;;;5044830;28;20037;-50
2023/04/25 01:51:19;;;;;;;12.05;5.85;;;10.30;61.70;;;;;;5047229;28;20038;-47
2023/04/25 01:53:46;;;;;;;11.90;5.63;;;10.20;61.80;;;;;;5031281;28;20052;-48
2023/04/25 01:56:13;;;;;;;10.40;5.05;;;10.10;61.90;;;;;;5033340;28;20041;-46
2023/04/25 01:58:39;;;;;;;11.07;4.93;;;10.10;62.00;;;;;;5019304;28;20552;-46
2023/04/25 02:01:36;;;;;;;7.47;4.63;;;10.10;62.20;;;;;;4995993;28;20821;-49
2023/04/25 02:04:19;;;;;;;12.93;5.55;;;10.00;62.20;;;;;;5039131;28;20053;-51
2023/04/25 02:06:46;;;;;;;14.35;5.82;;;10.00;62.30;;;;;;5048265;28;20048;-49
2023/04/25 02:09:14;;;;;;;9.75;5.53;;;10.00;62.50;;;;;;5021777;28;20487;-48
2023/04/25 02:11:51;;;;;;;10.65;6.10;;;9.90;62.60;;;;;;5032724;28;20040;-46
2023/04/25 02:14:33;;;;;;;;;;;10.00;62.80;;;;;;5044527;28;20502;-48
2023/04/25 02:17:24;;;;;;;9.50;5.40;;;10.00;63.20;;;;;;5035346;28;20351;-46
2023/04/25 02:19:51;;;;;;;7.82;5.57;;;10.00;62.50;;;;;;5043165;28;20140;-46
2023/04/25 02:22:19;;;;;;;11.77;5.70;;;10.00;63.00;;;;;;5033085;28;20036;-46
2023/04/25 02:24:49;;;;;;;13.38;6.30;;;9.90;63.10;;;;;;5046373;28;20048;-50
2023/04/25 02:27:23;;;;;;;9.05;5.13;;;10.00;63.30;;;;;;5047552;28;20072;-46
2023/04/25 02:29:50;;;;;;;9.80;5.65;;;10.00;63.60;;;;;;5045219;28;20049;-46
2023/04/25 02:32:19;;;;;;;14.55;6.32;;;10.00;63.50;;;;;;5027905;28;20041;-44
2023/04/25 02:34:48;;;;;;;13.77;5.53;;;10.00;63.70;;;;;;5048618;28;20049;-47
2023/04/25 02:37:19;;;;;;;9.77;5.93;;;10.00;63.70;;;;;;5031530;28;20034;-45
2023/04/25 02:39:45;;;;;;;9.48;5.35;;;10.10;63.80;;;;;;5031242;28;20421;-46
2023/04/25 02:42:13;;;;;;;12.18;5.57;;;10.10;63.90;;;;;;5044891;28;20576;-50
2023/04/25 02:44:40;;;;;;;12.23;5.95;;;10.10;63.90;;;;;;5030070;28;20045;-47
2023/04/25 02:47:07;;;;;;;9.52;5.15;;;10.10;63.90;;;;;;5043375;28;20131;-48
2023/04/25 02:49:35;;;;;;;8.88;5.35;;;10.10;63.90;;;;;;5029588;28;20033;-47
2023/04/25 02:52:02;;;;;;;9.02;5.05;;;10.20;63.90;;;;;;5050288;28;20524;-50
2023/04/25 02:54:32;;;;;;;14.27;5.75;;;10.20;63.90;;;;;;5033549;28;20133;-48
2023/04/25 02:57:00;;;;;;;10.18;4.70;;;10.20;63.80;;;;;;5031458;28;20065;-48
2023/04/25 02:59:31;;;;;;;10.23;5.75;;;10.20;63.80;;;;;;5035008;28;20050;-45
2023/04/25 03:02:01;;;;;;;9.85;5.43;;;10.20;63.60;;;;;;5049034;28;20050;-47
2023/04/25 03:04:28;;;;;;;13.10;5.68;;;10.20;63.60;;;;;;5028660;28;20049;-47
2023/04/25 03:06:55;;;;;;;12.77;5.95;;;10.20;63.60;;;;;;5046924;28;20515;-50
2023/04/25 03:09:22;;;;;;;9.93;5.40;;;10.20;63.70;;;;;;5049124;28;20628;-50
2023/04/25 03:11:51;;;;;;;7.57;4.55;;;10.20;63.70;;;;;;5048987;28;20056;-50
2023/04/25 03:14:21;;;;;;;12.50;4.93;;;10.20;63.80;;;;;;5025103;28;20036;-46
2023/04/25 03:16:47;;;;;;;9.98;5.03;;;10.20;63.70;;;;;;5027194;28;20041;-51
2023/04/25 03:19:16;;;;;;;10.27;5.43;;;10.20;63.70;;;;;;5042175;28;20571;-46
2023/04/25 03:21:44;;;;;;;9.13;4.80;;;10.20;63.70;;;;;;5042149;28;20049;-50
2023/04/25 03:24:12;;;;;;;7.85;4.60;;;10.20;63.80;;;;;;5043183;28;20077;-47
2023/04/25 03:26:38;;;;;;;9.55;5.38;;;10.20;63.80;;;;;;5046106;28;20052;-46
2023/04/25 03:29:05;;;;;;;12.00;4.90;;;10.10;63.80;;;;;;5039982;28;20640;-45
2023/04/25 03:31:33;;;;;;;7.93;4.45;;;10.20;63.80;;;;;;5024445;28;20036;-49
2023/04/25 03:34:00;;;;;;;14.25;5.13;;;10.20;63.80;;;;;;5030024;28;20048;-45
2023/04/25 03:36:28;;;;;;;9.35;4.90;;;10.10;63.70;;;;;;5031027;28;20041;-47
2023/04/25 03:38:54;;;;;;;10.88;5.43;;;10.10;63.80;;;;;;5018080;28;20409;-50
2023/04/25 03:41:24;;;;;;;6.70;4.22;;;10.10;63.80;;;;;;5033542;28;20517;-48
2023/04/25 03:43:55;;;;;;;10.13;5.05;;;10.10;63.90;;;;;;5047811;28;20040;-47
2023/04/25 03:46:22;;;;;;;10.20;4.30;;;10.10;63.80;;;;;;5045488;28;20037;-46
2023/04/25 03:48:49;;;;;;;11.32;5.25;;;10.00;63.80;;;;;;5022161;28;20045;-49
2023/04/25 03:51:26;;;;;;;9.13;4.65;;;10.00;63.90;;;;;;5033334;28;20075;-48
2023/04/25 03:53:53;;;;;;;12.60;4.68;;;10.00;63.90;;;;;;5030732;28;20045;-50
2023/04/25 03:56:29;;;;;;;10.80;5.03;;;10.00;64.00;;;;;;5032712;28;20115;-48
2023/04/25 03:59:04;;;;;;;12.07;4.60;;;10.00;64.10;;;;;;5024404;28;20041;-47
2023/04/25 04:01:31;;;;;;;12.73;4.80;;;9.90;64.10;;;;;;5030491;28;20041;-46
2023/04/25 04:04:00;;;;;;;10.57;4.95;;;10.00;64.30;;;;;;5042823;28;20511;-46
2023/04/25 04:06:31;;;;;;;9.35;4.30;;;9.90;64.20;;;;;;5030633;28;20302;-50
2023/04/25 04:09:10;;;;;;;8.02;4.32;;;10.00;64.30;;;;;;5044605;28;20453;-50
2023/04/25 04:11:41;;;;;;;10.20;4.43;;;9.90;64.20;;;;;;5046112;28;20049;-50
2023/04/25 04:14:09;;;;;;;11.73;4.68;;;9.90;64.10;;;;;;5048971;28;20106;-45
2023/04/25 04:16:40;;;;;;;10.85;5.20;;;9.90;64.00;;;;;;5028835;28;20048;-47
2023/04/25 04:19:08;;;;;;;13.80;5.10;;;9.90;64.00;;;;;;5048107;28;20083;-48
2023/04/25 04:21:36;;;;;;;12.13;4.13;;;10.00;64.10;;;;;;5033521;28;20501;-49
2023/04/25 04:24:03;;;;;;;13.30;4.82;;;9.90;64.00;;;;;;5044136;28;20047;-45
2023/04/25 04:26:39;;;;;;;10.02;4.00;;;9.90;64.10;;;;;;5028108;28;20687;-50
2023/04/25 04:29:23;;;;;;;13.10;4.88;;;9.90;64.10;;;;;;5041675;28;20099;-49
2023/04/25 04:32:04;;;;;;;11.15;5.82;;;9.90;64.10;;;;;;5046574;28;20056;-46
2023/04/25 04:34:34;;;;;;;8.05;4.68;;;9.90;64.20;;;;;;5026328;28;20063;-47
2023/04/25 04:37:02;;;;;;;9.05;4.70;;;9.90;64.30;;;;;;5042796;28;20296;-46
2023/04/25 04:39:33;;;;;;;14.93;5.40;;;9.90;64.40;;;;;;5018197;28;20481;-48
2023/04/25 04:42:11;;;;;;;10.43;4.63;;;9.90;64.40;;;;;;5048607;28;20044;-47
2023/04/25 04:44:55;;;;;;;13.10;4.97;;;9.90;64.40;;;;;;5037880;28;20067;-46
2023/04/25 04:47:25;;;;;;;10.20;4.60;;;9.90;64.40;;;;;;5047483;28;20045;-49
2023/04/25 04:50:12;;;;;;;12.23;4.68;;;9.90;64.40;;;;;;5017678;28;20045;-46
2023/04/25 04:52:58;;;;;;;12.35;4.95;;;9.90;64.30;;;;;;5043393;28;20127;-46
2023/04/25 04:55:46;;;;;;;13.02;4.30;;;9.90;64.30;;;;;;5023367;28;20503;-47
2023/04/25 04:58:44;;;;;;;10.70;4.90;;;9.90;64.30;;;;;;5023075;28;20260;-49
2023/04/25 05:01:31;;;;;;;9.27;4.18;;;10.00;64.30;;;;;;5030106;28;20410;-48
2023/04/25 05:04:05;;;;;;;9.45;4.10;;;10.00;64.30;;;;;;5028309;28;20041;-48
2023/04/25 05:06:45;;;;;;;9.82;4.15;;;10.00;64.50;;;;;;5039222;28;20630;-47
2023/04/25 05:09:27;;;;;;;14.02;4.68;;;10.00;64.40;;;;;;5041092;28;20053;-49
2023/04/25 05:12:28;;;;;;;9.18;4.57;;;10.00;64.40;;;;;;5026700;28;20045;-51
2023/04/25 05:15:32;;;;;;;10.88;4.55;;;10.10;64.40;;;;;;5031543;28;20040;-47
2023/04/25 05:18:16;;;;;;;10.60;4.40;;;10.10;64.40;;;;;;5023517;28;20037;-50
2023/04/25 05:21:05;;;;;;;12.80;4.85;;;10.10;64.30;;;;;;5030096;28;20045;-50
2023/04/25 05:23:49;;;;;;;13.30;5.00;;;10.20;64.40;;;;;;5029261;28;20055;-49
2023/04/25 05:26:41;;;;;;;15.48;4.97;;;10.20;64.30;;;;;;5039104;28;20520;-47
2023/04/25 05:29:27;;;;;;;12.07;4.72;;;10.20;64.20;;;;;;5042375;28;20044;-49
2023/04/25 05:32:04;;;;;;;10.38;4.78;;;10.20;64.20;;;;;;5030230;28;20041;-48
2023/04/25 05:34:31;;;;;;;15.48;5.13;;;10.30;64.30;;;;;;5025404;28;20044;-50
2023/04/25 05:37:06;;;;;;;12.05;4.22;;;10.30;64.30;;;;;;5033550;23;20045;-43
2023/04/25 05:39:39;;;;;;;9.00;4.20;;;10.30;64.10;;;;;;5010252;28;20084;-43
2023/04/25 05:42:10;;;;;;;10.43;4.57;;;10.40;64.00;;;;;;5030246;28;20038;-43
2023/04/25 05:44:55;;;;;;;9.63;4.35;;;10.40;63.90;;;;;;5015469;28;20048;-43
2023/04/25 05:47:29;;;;;;;8.48;4.53;;;10.40;63.90;;;;;;5026740;28;20056;-42
2023/04/25 05:50:08;;;;;;;10.68;4.68;;;10.50;63.80;;;;;;5027317;28;20417;-45
2023/04/25 05:53:07;;;;;;;8.95;4.13;;;10.50;64.00;;;;;;4974339;28;20140;-43
2023/04/25 05:55:41;;;;;;;10.48;4.32;;;10.60;63.80;;;;;;5011300;28;20056;-43
2023/04/25 05:58:20;;;;;;;14.48;4.65;;;10.60;63.60;;;;;;5008274;28;20038;-43
2023/04/25 06:00:52;;;;;;;9.60;4.85;;;10.70;63.50;;;;;;4996517;28;20049;-44
2023/04/25 06:03:18;;;;;;;11.50;4.53;;;10.70;63.30;;;;;;5043901;28;20034;-43
2023/04/25 06:05:47;;;;;;;14.98;4.85;;;10.70;63.30;;;;;;5008550;28;20068;-43
2023/04/25 06:08:14;;;;;;;10.68;4.68;;;10.80;63.20;;;;;;5027754;28;20037;-45
2023/04/25 06:10:40;;;;;;;10.40;4.32;;;10.80;63.40;;;;;;5015921;28;20640;-44
2023/04/25 06:13:11;;;;;;;8.13;4.53;;;10.80;63.30;;;;;;5007089;28;20393;-43
2023/04/25 06:15:38;;;;;;;11.35;4.47;;;10.80;63.30;;;;;;5027928;28;20046;-45
2023/04/25 06:18:05;;;;;;;14.73;5.18;;;10.80;62.90;;;;;;5010002;28;20053;-43
2023/04/25 06:20:33;;;;;;;13.23;5.07;;;10.90;62.80;;;;;;5002175;28;20088;-42
2023/04/25 06:23:00;;;;;;;10.20;4.15;;;10.80;62.80;;;;;;5024549;28;20038;-44
2023/04/25 06:25:39;;;;;;;9.35;4.10;;;10.90;63.10;;;;;;5013347;28;20049;-46
2023/04/25 06:28:06;;;;;;;11.50;5.75;;;10.90;62.80;;;;;;5012641;28;20037;-43
2023/04/25 06:30:33;;;;;;;12.00;4.55;;;10.90;62.80;;;;;;5014462;28;20525;-44
2023/04/25 06:33:05;;;;;;;10.13;4.75;;;10.90;62.70;;;;;;5013371;28;20045;-43
2023/04/25 06:35:32;;;;;;;8.55;4.78;;;10.90;62.80;;;;;;4995500;28;20046;-43
2023/04/25 06:37:59;;;;;;;9.48;4.35;;;11.00;62.90;;;;;;5006896;28;20046;-45
2023/04/25 06:40:26;;;;;;;10.10;4.63;;;11.00;62.90;;;;;;5007975;28;20065;-43
2023/04/25 06:42:53;;;;;;;10.13;4.22;;;11.00;62.60;;;;;;5011899;28;20072;-43
2023/04/25 06:45:36;;;;;;;10.52;4.28;;;11.10;62.50;;;;;;5009083;28;20041;-44
2023/04/25 06:48:07;;;;;;;10.35;4.93;;;11.10;62.30;;;;;;5008227;28;20041;-45
2023/04/25 06:50:34;;;;;;;8.05;3.83;;;11.20;62.40;;;;;;5011849;28;20045;-43
2023/04/25 06:53:01;;;;;;;12.93;4.38;;;11.20;62.40;;;;;;5028917;28;20045;-43
2023/04/25 06:55:29;;;;;;;9.32;4.30;;;11.30;62.40;;;;;;5007874;28;20034;-44
2023/04/25 06:58:08;;;;;;;9.13;3.47;;;11.30;62.20;;;;;;5011748;28;20053;-45
2023/04/25 07:00:51;;;;;;;11.10;4.15;;;11.30;61.70;;;;;;5014683;28;20891;-47
2023/04/25 07:03:20;;;;;;;10.93;3.50;;;11.40;61.20;;;;;;5014408;28;20041;-44
2023/04/25 07:05:47;;;;;;;9.25;3.92;;;11.40;60.70;;;;;;5014462;28;20099;-44
2023/04/25 07:08:17;;;;;;;9.15;3.53;;;11.40;60.50;;;;;;5009896;28;20030;-47
2023/04/25 07:10:45;;;;;;;6.63;3.38;;;11.40;60.10;;;;;;5014530;28;20519;-47
2023/04/25 07:13:15;;;;;;;9.27;3.25;;;11.40;61.00;;;;;;5011483;28;20125;-47
2023/04/25 07:15:43;;;;;;;8.05;3.30;;;11.40;60.60;;;;;;5022052;28;20045;-47
2023/04/25 07:18:10;;;;;;;7.93;4.15;;;11.40;60.90;;;;;;5011268;28;20430;-42
2023/04/25 07:20:39;;;;;;;13.27;3.88;;;11.50;61.20;;;;;;5012250;28;20053;-44
2023/04/25 07:23:08;;;;;;;7.82;4.07;;;11.60;61.30;;;;;;4996840;28;20070;-43
2023/04/25 07:25:35;;;;;;;5.53;3.80;;;11.60;60.80;;;;;;5008328;28;20045;-44
2023/04/25 07:28:02;;;;;;;10.55;3.55;;;11.70;60.20;;;;;;4999716;28;20045;-44
2023/04/25 07:30:28;;;;;;;6.68;3.20;;;11.80;59.90;;;;;;5019092;28;20061;-48
2023/04/25 07:32:55;;;;;;;8.10;4.03;;;11.80;59.50;;;;;;5012390;28;20524;-46
2023/04/25 07:35:24;;;;;;;9.05;3.72;;;11.90;59.20;;;;;;5006359;28;20387;-43
2023/04/25 07:37:51;;;;;;;8.18;3.03;;;12.00;59.20;;;;;;5010540;28;20429;-43
2023/04/25 07:40:20;;;;;;;11.93;3.40;;;12.00;59.10;;;;;;5007480;28;20065;-48
2023/04/25 07:42:51;;;;;;;6.28;2.78;;;12.10;58.90;;;;;;5010212;28;20061;-47
2023/04/25 07:45:27;;;;;;;6.43;3.28;;;12.10;58.20;;;;;;5012422;28;20041;-46
2023/04/25 07:47:57;;;;;;;7.85;3.25;;;12.20;58.20;;;;;;5012444;28;20072;-44
2023/04/25 07:50:23;;;;;;;8.93;3.33;;;12.30;57.70;;;;;;5011752;28;20037;-47
2023/04/25 07:52:50;;;;;;;7.85;3.22;;;12.30;57.70;;;;;;5029701;28;20041;-47
2023/04/25 07:55:24;;;;;;;4.32;2.13;;;12.40;57.00;;;;;;5021792;28;20053;-48
2023/04/25 07:58:09;;;;;;;8.15;2.70;;;12.40;56.80;;;;;;5010448;28;20038;-45
2023/04/25 08:00:41;;;;;;;5.55;2.50;;;12.50;56.70;;;;;;5029651;28;20132;-45
2023/04/25 08:03:28;;;;;;;4.53;2.28;;;12.50;56.30;;;;;;5018866;28;20091;-44
2023/04/25 08:05:57;;;;;;;5.97;2.38;;;12.60;55.60;;;;;;4994017;28;20053;-45
2023/04/25 08:08:26;;;;;;;6.25;2.72;;;12.60;55.50;;;;;;5003473;28;20040;-45
2023/04/25 08:10:53;;;;;;;10.18;2.97;;;12.70;55.40;;;;;;5013421;28;20045;-45
2023/04/25 08:13:20;;;;;;;7.20;2.42;;;12.60;54.90;;;;;;5011689;28;20073;-44
2023/04/25 08:15:50;;;;;;;6.05;2.33;;;12.60;54.70;;;;;;5008475;28;20132;-45
2023/04/25 08:18:17;;;;;;;5.03;2.03;;;12.60;54.30;;;;;;5026206;28;20076;-47
2023/04/25 08:20:46;;;;;;;8.05;2.70;;;12.60;54.40;;;;;;5009890;28;20049;-46
2023/04/25 08:23:14;;;;;;;7.60;2.55;;;12.60;54.60;;;;;;5009826;28;20167;-44
2023/04/25 08:25:51;;;;;;;6.22;2.90;;;12.60;54.80;;;;;;5010289;28;20050;-45
2023/04/25 08:28:21;;;;;;;3.78;2.03;;;12.70;55.20;;;;;;5011098;28;20454;-44
2023/04/25 08:30:50;;;;;;;9.75;2.67;;;12.70;55.50;;;;;;5029463;28;20033;-44
2023/04/25 08:33:18;;;;;;;4.53;2.30;;;12.80;54.90;;;;;;5010629;28;20073;-44
2023/04/25 08:35:47;;;;;;;9.00;2.45;;;12.90;54.70;;;;;;5014614;28;20045;-44
2023/04/25 08:38:18;;;;;;;7.90;2.58;;;12.90;54.00;;;;;;5011555;28;20060;-45
2023/04/25 08:40:51;;;;;;;6.00;2.70;;;12.90;53.40;;;;;;5015476;28;20402;-44
2023/04/25 08:43:20;;;;;;;5.68;2.97;;;12.80;53.40;;;;;;5020393;28;20067;-45
2023/04/25 08:45:52;;;;;;;7.45;3.10;;;12.80;53.30;;;;;;5031282;28;20072;-44
2023/04/25 08:48:46;;;;;;;6.10;2.20;;;12.70;53.40;;;;;;5022443;28;20049;-44
2023/04/25 08:51:24;;;;;;;7.28;2.45;;;12.60;53.30;;;;;;5007052;28;20046;-46
2023/04/25 08:53:52;;;;;;;6.85;2.47;;;12.60;53.20;;;;;;5028694;28;20049;-47
2023/04/25 08:56:27;;;;;;;5.50;2.38;;;12.50;53.50;;;;;;5009693;28;20040;-49
2023/04/25 08:58:56;;;;;;;5.20;1.60;;;12.60;53.70;;;;;;5020442;28;20132;-47
2023/04/25 09:01:22;;;;;;;4.88;1.88;;;12.70;54.10;;;;;;4992082;28;20042;-48
2023/04/25 09:03:55;;;;;;;8.18;2.33;;;12.70;53.90;;;;;;4992178;28;20127;-44
2023/04/25 09:06:26;;;;;;;6.85;2.15;;;12.80;53.10;;;;;;5025883;28;20077;-44
2023/04/25 09:08:55;;;;;;;2.92;1.50;;;12.80;52.90;;;;;;5013600;28;20042;-48
2023/04/25 09:11:25;;;;;;;;;;;12.80;53.20;;;;;;5010062;28;20049;-46
2023/04/25 09:14:22;;;;;;;5.32;2.22;;;12.90;53.70;;;;;;5013367;28;19921;-49
2023/04/25 09:17:24;;;;;;;6.20;2.17;;;12.90;52.40;;;;;;4930014;29;20055;-45
2023/04/25 09:19:54;;;;;;;4.40;1.90;;;13.00;52.00;;;;;;4995211;28;20049;-45
2023/04/25 09:22:28;;;;;;;4.28;1.98;;;13.00;52.20;;;;;;5011127;28;20095;-45
2023/04/25 09:24:57;;;;;;;6.15;2.45;;;13.00;52.50;;;;;;5013921;28;20528;-44
2023/04/25 09:27:30;;;;;;;5.15;2.25;;;13.10;52.10;;;;;;5012369;28;20065;-46
2023/04/25 09:30:10;;;;;;;3.83;2.35;;;13.10;51.30;;;;;;5032731;28;20045;-47
2023/04/25 09:33:06;;;;;;;3.13;1.85;;;13.10;51.50;;;;;;5008771;28;20046;-44
2023/04/25 09:35:43;;;;;;;7.00;2.03;;;13.10;51.90;;;;;;5013180;28;20511;-46
2023/04/25 09:38:24;;;;;;;4.60;1.70;;;13.10;52.20;;;;;;5002102;28;20272;-48
2023/04/25 09:41:08;;;;;;;4.50;2.08;;;13.20;51.40;;;;;;5010640;28;20055;-47
2023/04/25 09:43:44;;;;;;;2.70;1.58;;;13.20;51.70;;;;;;4987758;28;20056;-46
2023/04/25 09:46:11;;;;;;;6.00;2.38;;;13.20;51.70;;;;;;5026405;28;20528;-49
2023/04/25 09:48:53;;;;;;;3.25;2.03;;;13.20;51.90;;;;;;5014236;28;20044;-49
2023/04/25 09:51:31;;;;;;;5.88;2.05;;;13.30;51.80;;;;;;4998435;28;20053;-44
2023/04/25 09:54:01;;;;;;;4.30;1.52;;;13.40;51.80;;;;;;5011737;28;20704;-44
2023/04/25 09:56:50;;;;;;;2.47;1.45;;;13.40;51.60;;;;;;5011057;28;20041;-48
2023/04/25 09:59:22;;;;;;;2.85;1.50;;;13.50;50.80;;;;;;5006399;28;20068;-49
2023/04/25 10:01:52;;;;;;;2.38;1.40;;;13.60;50.90;;;;;;5017924;28;20133;-46
2023/04/25 10:04:34;;;;;;;5.63;1.58;;;13.70;49.20;;;;;;5013253;28;20042;-46
2023/04/25 10:07:15;;;;;;;4.85;1.80;;;13.70;48.90;;;;;;5021466;28;20092;-46
2023/04/25 10:09:50;;;;;;;4.10;1.38;;;13.70;48.90;;;;;;5024079;28;20046;-49
2023/04/25 10:12:17;;;;;;;3.42;1.50;;;13.60;49.60;;;;;;5015383;28;20050;-44
2023/04/25 10:14:49;;;;;;;5.68;2.50;;;13.60;49.80;;;;;;5014212;28;20041;-44
2023/04/25 10:17:20;;;;;;;3.93;1.90;;;13.60;49.70;;;;;;5020488;28;20103;-44
2023/04/25 10:19:51;;;;;;;3.47;1.77;;;13.50;50.50;;;;;;5025282;28;20096;-44
2023/04/25 10:22:38;;;;;;;7.20;1.95;;;13.50;49.90;;;;;;5013067;28;20567;-48
2023/04/25 10:25:08;;;;;;;4.00;2.17;;;13.60;49.60;;;;;;5015201;28;20061;-47
2023/04/25 10:27:36;;;;;;;3.45;1.65;;;13.60;50.40;;;;;;5013051;28;20460;-48
2023/04/25 10:30:09;;;;;;;3.88;1.17;;;13.70;50.40;;;;;;5028117;28;20075;-45
2023/04/25 10:32:37;;;;;;;5.15;1.65;;;13.80;49.40;;;;;;5014052;28;20041;-44
2023/04/25 10:35:19;;;;;;;3.30;1.52;;;13.80;49.30;;;;;;5014092;28;20502;-44
2023/04/25 10:37:57;;;;;;;2.60;1.40;;;13.90;48.20;;;;;;5017135;28;20075;-45
2023/04/25 10:40:26;;;;;;;3.83;1.02;;;13.90;48.20;;;;;;5028715;28;20132;-49
2023/04/25 10:42:56;;;;;;;3.58;1.40;;;14.00;49.60;;;;;;5012305;28;20061;-46
2023/04/25 10:45:28;;;;;;;1.90;1.13;;;14.10;48.60;;;;;;5012395;28;20460;-47
2023/04/25 10:47:55;;;;;;;2.75;1.20;;;14.10;48.30;;;;;;5027805;28;20052;-44
2023/04/25 10:50:37;;;;;;;2.38;1.00;;;14.10;48.10;;;;;;5014724;28;20045;-46
2023/04/25 10:53:14;;;;;;;3.13;1.35;;;14.20;48.50;;;;;;5027523;28;20037;-46
2023/04/25 10:55:56;;;;;;;3.95;1.58;;;14.20;48.30;;;;;;5019702;28;20498;-46
2023/04/25 10:58:25;;;;;;;2.78;1.20;;;14.30;47.80;;;;;;5026552;28;20095;-49
2023/04/25 11:00:52;;;;;;;3.08;1.15;;;14.30;48.20;;;;;;5021845;28;20057;-47
2023/04/25 11:03:26;;;;;;;2.42;1.25;;;14.30;48.00;;;;;;5012416;28;20061;-46
2023/04/25 11:05:54;;;;;;;5.22;1.80;;;14.40;47.50;;;;;;4998140;28;20052;-46
2023/04/25 11:08:47;;;;;;;3.00;1.42;;;14.40;47.90;;;;;;5010625;28;20064;-45
2023/04/25 11:11:16;;;;;;;3.50;1.40;;;14.50;47.20;;;;;;5010497;28;20046;-48
2023/04/25 11:13:46;;;;;;;3.63;1.73;;;14.40;47.60;;;;;;5014536;28;20460;-44
2023/04/25 11:16:17;;;;;;;3.78;1.85;;;14.50;47.60;;;;;;5028138;28;20048;-49
2023/04/25 11:18:51;;;;;;;4.35;1.52;;;14.40;47.50;;;;;;5011650;28;20050;-46
2023/04/25 11:21:18;;;;;;;5.93;1.90;;;14.40;47.90;;;;;;5011939;28;20125;-44
2023/04/25 11:23:46;;;;;;;1.60;1.20;;;14.30;47.90;;;;;;5025722;28;20045;-45
2023/04/25 11:26:15;;;;;;;3.13;1.60;;;14.20;47.70;;;;;;5015266;28;20045;-48
2023/04/25 11:28:45;;;;;;;4.10;1.65;;;14.10;48.70;;;;;;5027389;28;20104;-48
2023/04/25 11:31:16;;;;;;;4.25;1.52;;;14.00;48.50;;;;;;5014944;28;20049;-45
2023/04/25 11:33:44;;;;;;;5.28;1.23;;;13.80;48.70;;;;;;5012992;28;20042;-48
2023/04/25 11:36:12;;;;;;;4.40;1.85;;;13.70;49.10;;;;;;5005267;28;20050;-48
2023/04/25 11:38:40;;;;;;;4.28;1.75;;;13.70;49.60;;;;;;5026857;28;20046;-49
2023/04/25 11:41:12;;;;;;;3.92;1.88;;;13.60;50.50;;;;;;5059014;22;20416;-45
2023/04/25 11:43:44;;;;;;;3.00;1.88;;;13.50;50.50;;;;;;5043324;28;20393;-47
2023/04/25 11:46:11;;;;;;;3.90;1.52;;;13.60;51.20;;;;;;5052358;28;20044;-45
2023/04/25 11:48:39;;;;;;;4.05;2.13;;;13.60;50.90;;;;;;5043840;28;20051;-46
2023/04/25 11:51:09;;;;;;;6.47;2.05;;;13.60;50.80;;;;;;5051000;28;20041;-46
2023/04/25 11:53:35;;;;;;;2.63;1.50;;;13.70;50.60;;;;;;5043828;28;20033;-49
2023/04/25 11:56:10;;;;;;;3.97;1.90;;;13.80;50.50;;;;;;5045356;28;20050;-46
2023/04/25 11:58:57;;;;;;;5.20;1.52;;;13.90;49.90;;;;;;5036853;28;20049;-50
2023/04/25 12:01:32;;;;;;;3.40;1.40;;;13.90;49.70;;;;;;5038638;28;20049;-49
2023/04/25 12:04:31;;;;;;;1.67;1.48;;;14.00;49.50;;;;;;5031834;28;20840;-47
2023/04/25 12:07:00;;;;;;;3.58;1.38;;;14.00;48.40;;;;;;5030005;28;20099;-49
2023/04/25 12:09:31;;;;;;;;;;;14.00;49.50;;;;;;5036071;28;20051;-49
2023/04/25 12:12:03;;;;;;;4.32;1.20;;;14.10;49.60;;;;;;5037101;28;20574;-51
2023/04/25 12:14:35;;;;;;;3.15;1.00;;;14.10;48.40;;;;;;5051699;28;20037;-49
2023/04/25 12:17:05;;;;;;;2.50;1.45;;;14.20;47.50;;;;;;5051061;28;20071;-49
2023/04/25 12:19:34;;;;;;;1.85;0.90;;;14.20;47.80;;;;;;5051296;28;20049;-50
2023/04/25 12:22:20;;;;;;;6.88;1.58;;;14.30;48.10;;;;;;5050954;28;20048;-46
2023/04/25 12:24:49;;;;;;;2.80;1.40;;;14.40;48.10;;;;;;5051473;28;20040;-48
2023/04/25 12:27:19;;;;;;;2.83;1.38;;;14.40;47.80;;;;;;5034712;28;20107;-47
2023/04/25 12:29:53;;;;;;;3.28;1.30;;;14.50;48.10;;;;;;5043491;28;20044;-51
2023/04/25 12:32:20;;;;;;;1.58;1.00;;;14.60;47.10;;;;;;5034470;28;20037;-49
2023/04/25 12:34:47;;;;;;;2.08;1.15;;;14.70;47.00;;;;;;5031772;28;20517;-46
2023/04/25 12:37:14;;;;;;;2.70;1.27;;;14.80;46.70;;;;;;5038325;28;20041;-48
2023/04/25 12:39:41;;;;;;;3.78;1.20;;;14.80;46.80;;;;;;5042154;28;20079;-49
2023/04/25 12:42:11;;;;;;;1.50;0.98;;;14.90;45.90;;;;;;5036116;28;20045;-47
2023/04/25 12:44:46;;;;;;;1.95;0.90;;;14.90;46.10;;;;;;5031664;28;20103;-46
2023/04/25 12:47:13;;;;;;;1.98;0.90;;;15.10;45.70;;;;;;5045351;28;20049;-50
2023/04/25 12:49:40;;;;;;;3.75;1.05;;;15.10;46.00;;;;;;5042192;28;20044;-50
2023/04/25 12:52:08;;;;;;;2.80;1.20;;;15.20;46.30;;;;;;5050153;28;20065;-46
2023/04/25 12:54:35;;;;;;;4.97;1.65;;;15.20;46.70;;;;;;5050774;28;20037;-48
2023/04/25 12:57:11;;;;;;;4.35;1.40;;;15.30;47.00;;;;;;5050957;28;20099;-47
2023/04/25 12:59:48;;;;;;;3.70;1.70;;;15.20;46.90;;;;;;5049848;28;20115;-47
2023/04/25 13:02:21;;;;;;;4.63;1.20;;;15.20;46.90;;;;;;5051193;28;20394;-48
2023/04/25 13:04:47;;;;;;;;;;;15.10;46.90;;;;;;5039801;28;20095;-46
2023/04/25 13:07:16;;;;;;;3.30;1.48;;;15.00;47.10;;;;;;5042146;28;19935;-47
2023/04/25 13:09:43;;;;;;;1.98;1.10;;;14.80;46.80;;;;;;5044879;28;20036;-48